Time;durP1;ratioP1;P1;durP2;ratioP2;P2;SDS_P1;SDS_P2;PMS_P1;PMS_P2;Temp;Humidity;BMP_temperature;BMP_pressure;BME280_temperature;BME280_humidity;BME280_pressure;Samples;Min_cycle;Max_cycle;Signal;HPM_P1;HPM_P2
2022/05/14 00:00:29;;;;;;;12.57;6.39;;;;;;;;;;369565;145;864936;-62
2022/05/14 00:01:30;;;;;;;11.53;6.83;;;;;;;;;;370151;143;857373;-61
2022/05/14 00:02:32;;;;;;;12.41;7.29;;;;;;;;;;376689;142;865699;-61
2022/05/14 00:03:33;;;;;;;12.24;7.51;;;;;;;;;;376770;142;860538;-61
2022/05/14 00:04:35;;;;;;;17.21;7.47;;;;;;;;;;374045;142;858970;-62
2022/05/14 00:05:36;;;;;;;16.31;7.36;;;;;;;;;;368829;145;858689;-61
2022/05/14 00:06:38;;;;;;;10.82;7.04;;;;;;;;;;363082;148;857779;-61
2022/05/14 00:07:40;;;;;;;11.48;6.64;;;;;;;;;;365748;145;865898;-62
2022/05/14 00:08:41;;;;;;;10.51;6.79;;;;;;;;;;369880;145;858966;-61
2022/05/14 00:09:43;;;;;;;14.16;7.34;;;;;;;;;;368079;145;857355;-62
2022/05/14 00:13:25;;;;;;;11.28;6.82;;;;;;;;;;362773;145;859081;-61
2022/05/14 00:14:27;;;;;;;17.96;7.89;;;;;;;;;;362937;148;857121;-62
2022/05/14 00:15:28;;;;;;;11.86;6.96;;;;;;;;;;363078;146;859007;-61
2022/05/14 00:16:31;;;;;;;12.86;7.11;;;;;;;;;;362859;148;856880;-61
2022/05/14 00:17:33;;;;;;;11.70;7.20;;;;;;;;;;363137;145;857045;-61
2022/05/14 00:18:34;;;;;;;13.67;7.31;;;;;;;;;;367555;146;859179;-61
2022/05/14 00:19:36;;;;;;;15.38;7.27;;;;;;;;;;365792;145;865171;-62
2022/05/14 00:20:38;;;;;;;15.80;7.43;;;;;;;;;;369682;145;857349;-62
2022/05/14 00:21:40;;;;;;;14.75;6.45;;;;;;;;;;368215;145;865037;-61
2022/05/14 00:22:42;;;;;;;9.56;6.33;;;;;;;;;;362857;148;857557;-62
2022/05/14 00:23:43;;;;;;;11.15;7.11;;;;;;;;;;356080;148;857362;-61
2022/05/14 00:24:45;;;;;;;12.59;6.64;;;;;;;;;;356260;148;857169;-61
2022/05/14 00:25:47;;;;;;;17.19;6.98;;;;;;;;;;364893;145;867099;-61
2022/05/14 00:26:48;;;;;;;11.69;6.97;;;;;;;;;;364390;145;857050;-61
2022/05/14 00:27:50;;;;;;;14.34;7.36;;;;;;;;;;363078;145;865650;-60
2022/05/14 00:28:52;;;;;;;17.16;6.54;;;;;;;;;;367845;145;858828;-60
2022/05/14 00:29:55;;;;;;;11.69;6.86;;;;;;;;;;366015;145;858393;-60
2022/05/14 00:30:56;;;;;;;10.77;6.69;;;;;;;;;;360869;149;864943;-60
2022/05/14 00:31:58;;;;;;;11.82;7.14;;;;;;;;;;362576;145;857114;-60
2022/05/14 00:32:59;;;;;;;14.83;6.89;;;;;;;;;;362872;148;866532;-60
2022/05/14 00:34:01;;;;;;;12.79;6.52;;;;;;;;;;369729;143;859373;-68
2022/05/14 00:35:03;;;;;;;13.11;6.32;;;;;;;;;;376475;143;858345;-60
2022/05/14 00:36:05;;;;;;;13.57;6.73;;;;;;;;;;371412;143;859571;-61
2022/05/14 00:37:07;;;;;;;12.35;6.79;;;;;;;;;;364799;146;858727;-61
2022/05/14 00:38:08;;;;;;;12.19;6.36;;;;;;;;;;368043;146;857491;-68
2022/05/14 00:39:10;;;;;;;13.17;6.98;;;;;;;;;;367996;146;857062;-74
2022/05/14 00:40:28;;;;;;;14.42;6.77;;;;;;;;;;367996;146;865030;-72
2022/05/14 00:41:30;;;;;;;12.78;6.64;;;;;;;;;;367684;146;865321;-66
2022/05/14 00:42:32;;;;;;;12.46;6.69;;;;;;;;;;367921;146;857649;-69
2022/05/14 00:43:34;;;;;;;12.62;6.59;;;;;;;;;;368048;146;866369;-74
2022/05/14 00:44:36;;;;;;;9.52;6.27;;;;;;;;;;366861;146;857310;-61
2022/05/14 00:45:38;;;;;;;10.79;5.96;;;;;;;;;;366246;147;857308;-61
2022/05/14 00:46:42;;;;;;;13.42;6.76;;;;;;;;;;366150;147;858920;-61
2022/05/14 00:47:45;;;;;;;10.56;6.49;;;;;;;;;;367076;146;866708;-61
2022/05/14 00:48:47;;;;;;;10.81;7.26;;;;;;;;;;368233;146;857157;-60
2022/05/14 00:49:48;;;;;;;15.15;7.08;;;;;;;;;;368173;146;857685;-61
2022/05/14 00:50:51;;;;;;;10.74;6.51;;;;;;;;;;366924;146;857071;-60
2022/05/14 00:51:52;;;;;;;11.19;6.89;;;;;;;;;;365182;147;865073;-61
2022/05/14 00:52:56;;;;;;;11.34;7.09;;;;;;;;;;365295;147;857207;-61
2022/05/14 00:54:02;;;;;;;13.79;6.78;;;;;;;;;;365609;147;857178;-60
2022/05/14 00:55:04;;;;;;;13.56;6.54;;;;;;;;;;365433;147;858491;-63
2022/05/14 00:56:08;;;;;;;11.17;6.51;;;;;;;;;;366339;147;859413;-63
2022/05/14 00:57:10;;;;;;;11.74;7.20;;;;;;;;;;366384;147;859059;-62
2022/05/14 00:58:31;;;;;;;10.89;5.83;;;;;;;;;;366337;147;857314;-63
2022/05/14 00:59:33;;;;;;;10.33;6.68;;;;;;;;;;366243;145;864819;-61
2022/05/14 01:00:36;;;;;;;10.96;6.81;;;;;;;;;;369709;145;859009;-62
2022/05/14 01:01:38;;;;;;;11.64;7.04;;;;;;;;;;369576;145;865147;-62
2022/05/14 01:02:39;;;;;;;13.14;7.16;;;;;;;;;;369598;145;857883;-62
2022/05/14 01:03:41;;;;;;;11.14;6.64;;;;;;;;;;367889;145;857910;-61
2022/05/14 01:04:42;;;;;;;12.89;6.56;;;;;;;;;;363020;145;857683;-62
2022/05/14 01:05:44;;;;;;;12.36;6.84;;;;;;;;;;370073;145;857649;-61
2022/05/14 01:06:54;;;;;;;12.92;6.58;;;;;;;;;;370174;145;858462;-61
2022/05/14 01:07:56;;;;;;;14.97;6.61;;;;;;;;;;370220;145;857153;-61
2022/05/14 01:09:04;;;;;;;9.67;6.57;;;;;;;;;;370135;143;857726;-61
2022/05/14 01:10:05;;;;;;;13.33;6.37;;;;;;;;;;369755;145;857636;-62
2022/05/14 01:11:07;;;;;;;10.28;6.51;;;;;;;;;;370124;145;857296;-62
2022/05/14 01:12:08;;;;;;;10.03;6.73;;;;;;;;;;370140;145;866099;-62
2022/05/14 01:13:10;;;;;;;11.69;7.14;;;;;;;;;;370190;145;857769;-62
2022/05/14 01:14:12;;;;;;;11.62;6.79;;;;;;;;;;370172;145;859053;-62
2022/05/14 01:15:15;;;;;;;12.52;6.64;;;;;;;;;;370185;145;859330;-62
2022/05/14 01:16:17;;;;;;;13.14;6.43;;;;;;;;;;370313;143;857894;-62
2022/05/14 01:17:19;;;;;;;10.89;6.48;;;;;;;;;;377181;143;860750;-62
2022/05/14 01:18:22;;;;;;;14.53;6.39;;;;;;;;;;377138;143;864817;-62
2022/05/14 01:19:23;;;;;;;10.50;6.71;;;;;;;;;;377176;143;857173;-62
2022/05/14 01:20:25;;;;;;;12.39;6.90;;;;;;;;;;377229;143;858809;-62
2022/05/14 01:21:48;;;;;;;14.64;6.69;;;;;;;;;;377219;143;866141;-62
2022/05/14 01:22:57;;;;;;;10.77;6.80;;;;;;;;;;375873;143;859321;-62
2022/05/14 01:26:58;;;;;;;11.08;6.68;;;;;;;;;;372493;144;857327;-61
2022/05/14 01:27:59;;;;;;;10.09;6.91;;;;;;;;;;372483;143;857705;-62
2022/05/14 01:29:03;;;;;;;10.98;6.62;;;;;;;;;;370113;145;859416;-61
2022/05/14 01:30:05;;;;;;;14.25;6.66;;;;;;;;;;370049;143;859140;-61
2022/05/14 01:31:07;;;;;;;10.41;6.64;;;;;;;;;;370015;145;866497;-62
2022/05/14 01:32:09;;;;;;;12.86;6.39;;;;;;;;;;374903;143;857169;-61
2022/05/14 01:33:10;;;;;;;10.88;6.86;;;;;;;;;;377161;143;857967;-61
2022/05/14 01:34:14;;;;;;;12.48;7.41;;;;;;;;;;371729;143;859738;-61
2022/05/14 01:35:15;;;;;;;11.35;6.86;;;;;;;;;;369997;145;860507;-62
2022/05/14 01:36:17;;;;;;;14.74;7.29;;;;;;;;;;374664;143;857164;-61
2022/05/14 01:37:20;;;;;;;10.78;6.76;;;;;;;;;;375023;143;857932;-61
2022/05/14 01:38:22;;;;;;;12.26;7.12;;;;;;;;;;369857;143;858759;-61
2022/05/14 01:39:24;;;;;;;10.84;6.93;;;;;;;;;;370076;145;857298;-61
2022/05/14 01:40:27;;;;;;;10.93;6.59;;;;;;;;;;371360;143;858100;-61
2022/05/14 01:41:28;;;;;;;12.46;6.73;;;;;;;;;;376985;143;858749;-61
2022/05/14 01:42:30;;;;;;;11.58;6.99;;;;;;;;;;378752;141;866204;-62
2022/05/14 01:43:31;;;;;;;11.89;6.90;;;;;;;;;;380291;141;864819;-61
2022/05/14 01:44:33;;;;;;;11.11;6.59;;;;;;;;;;372379;143;857343;-61
2022/05/14 01:45:34;;;;;;;9.17;6.73;;;;;;;;;;370102;143;864974;-61
2022/05/14 01:46:36;;;;;;;12.06;7.06;;;;;;;;;;370111;145;857275;-68
2022/05/14 01:47:38;;;;;;;9.99;6.69;;;;;;;;;;370111;143;857332;-60
2022/05/14 01:48:39;;;;;;;12.57;7.14;;;;;;;;;;370054;145;857233;-60
2022/05/14 01:49:41;;;;;;;12.31;7.22;;;;;;;;;;371637;143;857521;-60
2022/05/14 01:50:42;;;;;;;10.94;7.14;;;;;;;;;;377162;143;857365;-60
2022/05/14 01:51:44;;;;;;;11.38;6.48;;;;;;;;;;376898;143;865006;-60
2022/05/14 01:52:46;;;;;;;14.35;6.96;;;;;;;;;;377038;143;865026;-61
2022/05/14 01:53:47;;;;;;;14.06;6.77;;;;;;;;;;377112;143;857526;-60
2022/05/14 01:54:49;;;;;;;10.12;6.60;;;;;;;;;;377254;143;857265;-61
2022/05/14 01:55:50;;;;;;;9.46;6.64;;;;;;;;;;375040;143;857714;-61
2022/05/14 01:56:52;;;;;;;10.95;6.29;;;;;;;;;;370163;145;866774;-61
2022/05/14 01:57:53;;;;;;;9.26;6.34;;;;;;;;;;372917;143;867217;-61
2022/05/14 01:58:55;;;;;;;11.06;6.64;;;;;;;;;;377120;143;858135;-60
2022/05/14 01:59:57;;;;;;;12.39;6.60;;;;;;;;;;373274;141;857406;-61
2022/05/14 02:00:58;;;;;;;12.72;6.56;;;;;;;;;;377214;143;860026;-61
2022/05/14 02:02:02;;;;;;;8.03;6.32;;;;;;;;;;376880;143;859521;-60
2022/05/14 02:03:04;;;;;;;9.39;6.72;;;;;;;;;;377125;143;865802;-61
2022/05/14 02:04:07;;;;;;;11.71;6.80;;;;;;;;;;376832;143;865117;-61
2022/05/14 02:05:08;;;;;;;15.62;6.97;;;;;;;;;;377017;143;859236;-64
2022/05/14 02:06:10;;;;;;;13.09;6.62;;;;;;;;;;365537;142;857070;-64
2022/05/14 02:07:12;;;;;;;16.09;6.77;;;;;;;;;;362894;148;858869;-63
2022/05/14 02:08:14;;;;;;;11.19;6.61;;;;;;;;;;363092;145;865181;-61
2022/05/14 02:09:16;;;;;;;12.17;6.91;;;;;;;;;;362994;148;864993;-61
2022/05/14 02:10:17;;;;;;;12.09;6.74;;;;;;;;;;368733;145;857297;-61
2022/05/14 02:11:19;;;;;;;10.00;6.12;;;;;;;;;;369782;145;857113;-61
2022/05/14 02:12:20;;;;;;;11.11;6.56;;;;;;;;;;369622;145;857099;-61
2022/05/14 02:13:22;;;;;;;9.01;5.95;;;;;;;;;;369814;145;857182;-60
2022/05/14 02:14:23;;;;;;;12.34;6.51;;;;;;;;;;368179;145;866642;-61
2022/05/14 02:15:25;;;;;;;11.09;6.73;;;;;;;;;;365414;147;857179;-61
2022/05/14 02:16:27;;;;;;;12.26;6.21;;;;;;;;;;363037;148;858903;-61
2022/05/14 02:17:28;;;;;;;7.70;6.11;;;;;;;;;;363073;145;864880;-61
2022/05/14 02:18:30;;;;;;;10.31;6.12;;;;;;;;;;362987;148;857215;-61
2022/05/14 02:19:31;;;;;;;14.94;6.26;;;;;;;;;;369552;145;857157;-61
2022/05/14 02:20:33;;;;;;;12.48;6.83;;;;;;;;;;369784;145;857239;-61
2022/05/14 02:21:35;;;;;;;15.49;6.69;;;;;;;;;;369641;145;857209;-61
2022/05/14 02:22:38;;;;;;;10.01;6.52;;;;;;;;;;369739;145;857476;-64
2022/05/14 02:23:40;;;;;;;10.80;6.63;;;;;;;;;;369379;145;866769;-64
2022/05/14 02:24:41;;;;;;;10.38;6.83;;;;;;;;;;369693;145;857351;-65
2022/05/14 02:25:43;;;;;;;12.92;6.48;;;;;;;;;;369148;145;864964;-60
2022/05/14 02:26:45;;;;;;;9.36;6.36;;;;;;;;;;369705;145;857288;-61
2022/05/14 02:27:46;;;;;;;11.69;6.42;;;;;;;;;;367589;145;866599;-61
2022/05/14 02:28:48;;;;;;;9.51;6.19;;;;;;;;;;368580;145;857165;-61
2022/05/14 02:29:53;;;;;;;11.84;6.41;;;;;;;;;;367452;145;857034;-61
2022/05/14 02:30:55;;;;;;;13.82;6.86;;;;;;;;;;362825;148;858806;-62
2022/05/14 02:31:57;;;;;;;10.56;6.78;;;;;;;;;;366185;145;857732;-62
2022/05/14 02:32:58;;;;;;;10.59;6.93;;;;;;;;;;369784;145;859801;-62
2022/05/14 02:34:00;;;;;;;12.01;6.74;;;;;;;;;;369578;145;857753;-62
2022/05/14 02:35:01;;;;;;;11.39;6.93;;;;;;;;;;369795;145;857495;-61
2022/05/14 02:36:04;;;;;;;15.46;6.70;;;;;;;;;;369706;145;857132;-62
2022/05/14 02:37:05;;;;;;;12.05;7.18;;;;;;;;;;369744;145;857268;-62
2022/05/14 02:38:07;;;;;;;11.12;6.78;;;;;;;;;;365378;145;857262;-61
2022/05/14 02:39:08;;;;;;;13.07;7.25;;;;;;;;;;363005;148;857196;-61
2022/05/14 02:40:11;;;;;;;12.37;7.04;;;;;;;;;;363053;145;857258;-60
2022/05/14 02:41:13;;;;;;;11.69;6.97;;;;;;;;;;363046;148;857702;-63
2022/05/14 02:42:15;;;;;;;10.98;6.75;;;;;;;;;;363083;145;858832;-62
2022/05/14 02:43:17;;;;;;;10.63;6.98;;;;;;;;;;362938;148;857231;-61
2022/05/14 02:44:19;;;;;;;15.74;7.42;;;;;;;;;;362972;146;857158;-61
2022/05/14 02:45:21;;;;;;;12.04;6.61;;;;;;;;;;362839;148;857586;-62
2022/05/14 02:46:24;;;;;;;9.77;6.52;;;;;;;;;;367754;146;865889;-62
2022/05/14 02:47:26;;;;;;;11.38;7.41;;;;;;;;;;367021;146;857184;-61
2022/05/14 02:48:28;;;;;;;9.65;6.49;;;;;;;;;;362842;148;864938;-61
2022/05/14 02:49:29;;;;;;;10.53;6.63;;;;;;;;;;361893;140;857090;-63
2022/05/14 02:50:31;;;;;;;14.41;7.53;;;;;;;;;;351903;153;859349;-63
2022/05/14 02:51:32;;;;;;;11.84;6.61;;;;;;;;;;352454;150;857813;-62
2022/05/14 02:52:34;;;;;;;10.06;6.76;;;;;;;;;;358293;150;857276;-62
2022/05/14 02:53:35;;;;;;;12.37;6.81;;;;;;;;;;357924;150;857245;-62
2022/05/14 02:54:37;;;;;;;9.57;6.66;;;;;;;;;;354864;151;865015;-62
2022/05/14 02:55:39;;;;;;;11.22;6.59;;;;;;;;;;354339;150;857831;-62
2022/05/14 02:56:40;;;;;;;9.36;6.44;;;;;;;;;;356403;149;865049;-62
2022/05/14 02:57:42;;;;;;;11.53;6.69;;;;;;;;;;356725;150;857704;-62
2022/05/14 03:00:05;;;;;;;14.36;6.50;;;;;;;;;;355597;150;857286;-63
2022/05/14 03:01:06;;;;;;;12.06;6.66;;;;;;;;;;358318;150;858601;-63
2022/05/14 03:02:08;;;;;;;12.41;6.70;;;;;;;;;;357803;150;859073;-62
2022/05/14 03:03:10;;;;;;;10.37;6.71;;;;;;;;;;360346;148;864883;-62
2022/05/14 03:04:12;;;;;;;11.05;6.51;;;;;;;;;;363017;145;857216;-62
2022/05/14 03:05:14;;;;;;;12.03;6.46;;;;;;;;;;361572;148;866020;-62
2022/05/14 03:06:16;;;;;;;11.73;6.97;;;;;;;;;;363993;147;858955;-63
2022/05/14 03:07:17;;;;;;;10.71;5.85;;;;;;;;;;364775;147;857083;-63
2022/05/14 03:08:19;;;;;;;9.71;6.74;;;;;;;;;;364585;147;858203;-63
2022/05/14 03:09:21;;;;;;;11.86;6.71;;;;;;;;;;364896;147;858545;-63
2022/05/14 03:10:22;;;;;;;11.89;6.20;;;;;;;;;;364771;147;865634;-63
2022/05/14 03:11:24;;;;;;;10.07;6.24;;;;;;;;;;364895;147;857239;-63
2022/05/14 03:12:25;;;;;;;11.38;6.49;;;;;;;;;;364698;147;857314;-63
2022/05/14 03:13:27;;;;;;;9.55;6.06;;;;;;;;;;364826;147;857291;-62
2022/05/14 03:14:28;;;;;;;9.34;5.91;;;;;;;;;;364889;147;857267;-63
2022/05/14 03:15:30;;;;;;;14.09;6.11;;;;;;;;;;362271;147;857338;-64
2022/05/14 03:16:32;;;;;;;12.58;6.56;;;;;;;;;;358252;150;867196;-63
2022/05/14 03:17:34;;;;;;;12.12;6.41;;;;;;;;;;358756;147;864979;-63
2022/05/14 03:18:36;;;;;;;8.57;5.92;;;;;;;;;;363127;147;857238;-63
2022/05/14 03:19:37;;;;;;;10.68;6.12;;;;;;;;;;364743;147;865156;-62
2022/05/14 03:20:39;;;;;;;11.84;6.19;;;;;;;;;;364903;147;857412;-62
2022/05/14 03:21:41;;;;;;;8.89;5.76;;;;;;;;;;364733;147;865071;-62
2022/05/14 03:22:42;;;;;;;9.56;5.96;;;;;;;;;;364855;147;857329;-62
2022/05/14 03:23:44;;;;;;;10.11;6.11;;;;;;;;;;364620;147;857298;-62
2022/05/14 03:24:45;;;;;;;13.72;6.29;;;;;;;;;;364806;147;857238;-62
2022/05/14 03:25:47;;;;;;;12.92;6.67;;;;;;;;;;362120;147;857066;-62
2022/05/14 03:26:49;;;;;;;13.74;6.96;;;;;;;;;;358121;150;857688;-63
2022/05/14 03:27:50;;;;;;;8.61;6.06;;;;;;;;;;358229;147;857265;-62
2022/05/14 03:28:52;;;;;;;9.11;6.28;;;;;;;;;;350628;153;857219;-62
2022/05/14 03:29:54;;;;;;;7.58;6.19;;;;;;;;;;348165;153;857826;-61
2022/05/14 03:30:57;;;;;;;11.48;6.27;;;;;;;;;;350629;153;859587;-62
2022/05/14 03:31:58;;;;;;;11.91;6.29;;;;;;;;;;353832;151;865884;-63
2022/05/14 03:33:00;;;;;;;13.00;6.04;;;;;;;;;;357051;151;858382;-62
2022/05/14 03:34:01;;;;;;;10.14;6.59;;;;;;;;;;355376;151;857275;-62
2022/05/14 03:35:05;;;;;;;10.17;6.25;;;;;;;;;;357103;151;857293;-62
2022/05/14 03:36:07;;;;;;;11.96;6.07;;;;;;;;;;355905;151;857745;-62
2022/05/14 03:37:08;;;;;;;12.87;6.03;;;;;;;;;;355178;151;864880;-61
2022/05/14 03:38:10;;;;;;;9.38;6.26;;;;;;;;;;351972;151;859057;-62
2022/05/14 03:39:11;;;;;;;9.26;5.69;;;;;;;;;;350718;153;857359;-62
2022/05/14 03:40:13;;;;;;;9.75;5.94;;;;;;;;;;350623;153;860007;-62
2022/05/14 03:41:17;;;;;;;11.38;6.00;;;;;;;;;;350675;153;860037;-61
2022/05/14 03:42:18;;;;;;;9.76;6.01;;;;;;;;;;350508;153;857212;-62
2022/05/14 03:43:20;;;;;;;10.18;5.72;;;;;;;;;;350720;151;858951;-63
2022/05/14 03:44:21;;;;;;;12.86;6.55;;;;;;;;;;347715;153;865016;-63
2022/05/14 03:45:23;;;;;;;10.47;6.04;;;;;;;;;;350712;153;857210;-63
2022/05/14 03:46:24;;;;;;;8.07;5.74;;;;;;;;;;342610;154;857719;-63
2022/05/14 03:47:26;;;;;;;8.46;5.87;;;;;;;;;;350780;151;865220;-64
2022/05/14 03:48:28;;;;;;;10.61;5.36;;;;;;;;;;350176;153;858062;-63
2022/05/14 03:49:29;;;;;;;9.60;5.68;;;;;;;;;;356489;150;859730;-63
2022/05/14 03:50:31;;;;;;;9.18;6.10;;;;;;;;;;350829;151;856792;-62
2022/05/14 03:51:32;;;;;;;8.67;5.88;;;;;;;;;;350712;153;865944;-63
2022/05/14 03:52:34;;;;;;;8.39;6.26;;;;;;;;;;350359;153;859324;-63
2022/05/14 03:53:36;;;;;;;9.76;5.99;;;;;;;;;;356355;151;858590;-65
2022/05/14 03:54:38;;;;;;;12.14;6.22;;;;;;;;;;355825;151;857226;-63
2022/05/14 03:55:40;;;;;;;10.89;5.91;;;;;;;;;;354815;151;865034;-62
2022/05/14 04:04:52;;;;;;;10.80;5.57;;;;;;;13.62;65.93;99260.28;372812;142;881122;-62
2022/05/14 04:05:54;;;;;;;8.86;5.47;;;;;;;13.60;65.81;99259.48;362298;147;857738;-62
2022/05/14 04:06:55;;;;;;;11.73;5.46;;;;;;;13.67;65.68;149084.98;366074;147;865800;-62
2022/05/14 04:07:57;;;;;;;8.49;5.43;;;;;;;;;;362883;146;858083;-62
2022/05/14 04:08:59;;;;;;;12.83;6.06;;;;;;;;;;359387;150;866620;-62
2022/05/14 04:10:01;;;;;;;8.42;5.77;;;;;;;;;;359599;147;858864;-62
2022/05/14 04:11:02;;;;;;;12.31;5.23;;;;;;;;;;359420;149;857223;-62
2022/05/14 04:12:05;;;;;;;8.79;5.47;;;;;;;;;;362287;147;857148;-62
2022/05/14 04:13:06;;;;;;;9.71;5.57;;;;;;;;;;359578;147;866675;-62
2022/05/14 04:14:08;;;;;;;9.40;6.01;;;;;;;;;;359494;149;859536;-62
2022/05/14 04:15:11;;;;;;;9.33;5.35;;;;;;;;;;364721;147;857756;-62
2022/05/14 04:16:12;;;;;;;11.01;5.76;;;;;;;;;;366057;146;857830;-62
2022/05/14 04:17:14;;;;;;;11.21;5.79;;;;;;;;;;366077;146;865735;-63
2022/05/14 04:18:16;;;;;;;9.71;5.73;;;;;;;;;;366110;147;857157;-62
2022/05/14 04:19:19;;;;;;;10.34;5.49;;;;;;;;;;361582;147;857241;-61
2022/05/14 04:20:21;;;;;;;11.93;5.73;;;;;;;;;;359276;149;864969;-61
2022/05/14 04:21:22;;;;;;;13.79;6.26;;;;;;;;;;359492;150;858088;-62
2022/05/14 04:22:24;;;;;;;8.69;5.71;;;;;;;;;;359428;149;857316;-61
2022/05/14 04:23:26;;;;;;;17.43;6.00;;;;;;;;;;359321;149;857748;-62
2022/05/14 04:24:28;;;;;;;12.55;5.83;;;;;;;;;;358792;149;857232;-61
2022/05/14 04:25:29;;;;;;;9.47;5.64;;;;;;;;;;350556;151;857171;-62
2022/05/14 04:26:31;;;;;;;11.43;5.88;;;;;;;;;;359326;150;857158;-61
2022/05/14 04:27:33;;;;;;;9.57;5.33;;;;;;;;;;359280;150;857128;-61
2022/05/14 04:28:35;;;;;;;11.81;5.54;;;;;;;;;;356013;150;857633;-62
2022/05/14 04:29:36;;;;;;;9.72;5.73;;;;;;;;;;353945;150;857419;-62
2022/05/14 04:30:38;;;;;;;10.87;5.75;;;;;;;;;;359311;149;866792;-62
2022/05/14 04:31:40;;;;;;;9.59;5.91;;;;;;;;;;358052;150;857260;-63
2022/05/14 04:32:42;;;;;;;8.50;5.24;;;;;;;;;;352933;152;857289;-64
2022/05/14 04:33:43;;;;;;;8.22;5.17;;;;;;;;;;353056;150;857272;-62
2022/05/14 04:34:45;;;;;;;9.46;5.88;;;;;;;;;;352963;152;857272;-62
2022/05/14 04:35:46;;;;;;;9.20;5.51;;;;;;;;;;354877;150;857143;-61
2022/05/14 04:36:48;;;;;;;9.46;6.07;;;;;;;;;;359389;150;858768;-61
2022/05/14 04:37:49;;;;;;;10.71;5.34;;;;;;;;;;357013;150;859723;-62
2022/05/14 04:38:51;;;;;;;7.80;4.86;;;;;;;;;;352904;152;858845;-62
2022/05/14 04:39:53;;;;;;;9.89;5.51;;;;;;;;;;355500;150;864872;-62
2022/05/14 04:40:54;;;;;;;8.66;5.44;;;;;;;;;;359365;149;857205;-62
2022/05/14 04:41:56;;;;;;;10.16;5.55;;;;;;;;;;359129;149;857236;-62
2022/05/14 04:42:57;;;;;;;8.98;5.34;;;;;;;;;;359386;148;857271;-62
2022/05/14 04:43:59;;;;;;;8.14;5.61;;;;;;;;;;358386;150;857184;-62
2022/05/14 04:45:01;;;;;;;10.41;5.11;;;;;;;;;;352915;152;857142;-61
2022/05/14 04:46:07;;;;;;;9.41;4.97;;;;;;;;;;352991;150;864984;-62
2022/05/14 04:47:09;;;;;;;10.73;5.67;;;;;;;;;;352661;152;859599;-63
2022/05/14 04:48:11;;;;;;;8.40;5.75;;;;;;;;;;353130;150;859189;-62
2022/05/14 04:49:12;;;;;;;9.90;5.61;;;;;;;;;;357590;150;864935;-62
2022/05/14 04:50:14;;;;;;;9.21;5.71;;;;;;;;;;354215;150;857195;-61
2022/05/14 04:51:15;;;;;;;10.73;5.44;;;;;;;;;;352901;152;857240;-62
2022/05/14 04:52:17;;;;;;;8.56;5.65;;;;;;;;;;358191;150;857282;-62
2022/05/14 04:53:18;;;;;;;11.21;5.45;;;;;;;;;;359232;149;864882;-61
2022/05/14 04:54:20;;;;;;;11.41;5.20;;;;;;;;;;359156;149;858278;-61
2022/05/14 04:55:22;;;;;;;12.20;5.71;;;;;;;;;;359326;149;860006;-62
2022/05/14 04:56:23;;;;;;;10.98;5.47;;;;;;;;;;359131;149;865821;-61
2022/05/14 04:57:25;;;;;;;9.99;5.35;;;;;;;;;;359339;150;857304;-61
2022/05/14 04:58:26;;;;;;;7.15;5.45;;;;;;;;;;359312;150;857253;-62
2022/05/14 04:59:28;;;;;;;9.64;5.28;;;;;;;;;;359163;149;857180;-61
2022/05/14 05:00:30;;;;;;;11.82;5.41;;;;;;;;;;352865;152;857206;-61
2022/05/14 05:01:31;;;;;;;10.33;5.61;;;;;;;;;;353364;150;864975;-62
2022/05/14 05:03:53;;;;;;;9.14;4.86;;;;;;;;;;358666;148;865590;-62
2022/05/14 05:04:54;;;;;;;8.84;4.61;;;;;;;;;;359292;149;865409;-61
2022/05/14 05:05:57;;;;;;;11.97;5.21;;;;;;;;;;356374;149;857236;-62
2022/05/14 05:06:59;;;;;;;9.11;5.28;;;;;;;;;;353049;152;857345;-62
2022/05/14 05:08:00;;;;;;;7.06;4.57;;;;;;;;;;354565;149;865294;-62
2022/05/14 05:09:02;;;;;;;9.48;4.75;;;;;;;;;;353072;152;858991;-61
2022/05/14 05:10:04;;;;;;;10.63;5.15;;;;;;;;;;353178;150;857250;-61
2022/05/14 05:11:06;;;;;;;9.05;4.94;;;;;;;;;;354838;151;859327;-62
2022/05/14 05:12:08;;;;;;;11.84;5.54;;;;;;;;;;360363;148;858984;-62
2022/05/14 05:13:13;;;;;;;12.88;5.01;;;;;;;;;;353717;148;865014;-61
2022/05/14 05:14:15;;;;;;;10.19;5.03;;;;;;;;;;352890;150;858289;-62
2022/05/14 05:15:16;;;;;;;9.66;5.34;;;;;;;;;;353079;152;857835;-61
2022/05/14 05:16:18;;;;;;;7.83;5.14;;;;;;;;;;353074;150;857306;-61
2022/05/14 05:17:19;;;;;;;11.02;5.40;;;;;;;;;;352998;152;866534;-62
2022/05/14 05:18:21;;;;;;;8.61;4.68;;;;;;;;;;353100;150;857133;-61
2022/05/14 05:19:23;;;;;;;10.25;4.77;;;;;;;;;;352983;152;857268;-61
2022/05/14 05:20:24;;;;;;;13.34;4.48;;;;;;;;;;353074;150;866627;-61
2022/05/14 05:21:26;;;;;;;10.61;4.44;;;;;;;;;;353001;150;865549;-62
2022/05/14 05:22:27;;;;;;;10.94;5.37;;;;;;;;;;353017;152;857472;-61
2022/05/14 05:23:29;;;;;;;10.13;4.60;;;;;;;;;;352982;150;864986;-61
2022/05/14 05:24:31;;;;;;;11.30;4.61;;;;;;;;;;352894;152;857168;-61
2022/05/14 05:25:33;;;;;;;7.88;4.00;;;;;;;;;;354500;150;857213;-61
2022/05/14 05:26:34;;;;;;;8.47;4.04;;;;;;;;;;352857;148;857262;-61
2022/05/14 05:27:36;;;;;;;8.57;4.46;;;;;;;;;;353014;150;864893;-61
2022/05/14 05:28:37;;;;;;;11.09;4.69;;;;;;;;;;353114;150;864914;-61
2022/05/14 05:29:39;;;;;;;10.09;4.36;;;;;;;;;;352927;150;865063;-60
2022/05/14 05:30:40;;;;;;;9.89;4.17;;;;;;;;;;352932;152;857345;-61
2022/05/14 05:31:42;;;;;;;12.71;3.96;;;;;;;;;;354533;150;864869;-61
2022/05/14 05:32:43;;;;;;;7.50;4.35;;;;;;;;;;359877;150;856668;-61
2022/05/14 05:33:45;;;;;;;13.41;4.14;;;;;;;;;;360037;150;856588;-61
2022/05/14 05:34:47;;;;;;;8.69;4.08;;;;;;;;;;360116;149;856778;-61
2022/05/14 05:35:48;;;;;;;8.96;3.80;;;;;;;;;;359756;149;856659;-61
2022/05/14 05:36:50;;;;;;;5.91;3.58;;;;;;;;;;359958;149;857199;-61
2022/05/14 05:37:51;;;;;;;6.83;3.85;;;;;;;;;;352476;152;866328;-61
2022/05/14 05:38:54;;;;;;;8.91;3.65;;;;;;;;;;359352;150;865799;-62
2022/05/14 05:39:55;;;;;;;6.96;3.86;;;;;;;;;;359143;149;865730;-61
2022/05/14 05:40:58;;;;;;;7.55;4.11;;;;;;;;;;359362;150;857200;-61
2022/05/14 05:41:59;;;;;;;7.85;3.57;;;;;;;;;;355910;149;858885;-61
2022/05/14 05:43:01;;;;;;;7.94;3.49;;;;;;;;;;352813;151;859503;-61
2022/05/14 05:44:02;;;;;;;7.57;3.39;;;;;;;;;;353366;141;857257;-61
2022/05/14 05:45:04;;;;;;;4.94;3.44;;;;;;;;;;349040;148;857906;-62
2022/05/14 05:46:06;;;;;;;4.65;3.06;;;;;;;;;;348970;154;867450;-62
2022/05/14 05:47:08;;;;;;;6.59;3.59;;;;;;;;;;342655;157;861073;-61
2022/05/14 05:48:10;;;;;;;7.94;3.33;;;;;;;;;;342737;154;857237;-62
2022/05/14 05:49:12;;;;;;;8.80;3.01;;;;;;;;;;349384;154;858856;-61
2022/05/14 05:50:14;;;;;;;8.61;3.63;;;;;;;;;;349245;154;858585;-61
2022/05/14 05:51:16;;;;;;;6.99;3.22;;;;;;;;;;349315;154;858665;-61
2022/05/14 05:52:18;;;;;;;8.99;3.14;;;;;;;;;;349233;154;857122;-60
2022/05/14 05:53:20;;;;;;;5.74;3.31;;;;;;;;;;349387;154;865605;-60
2022/05/14 05:56:55;;;;;;;7.23;3.65;;;;;;;;;;342130;157;858035;-61
2022/05/14 05:57:52;;;;;;;5.97;3.40;;;;;;;;;;344726;154;866445;-61
2022/05/14 05:58:53;;;;;;;8.61;3.48;;;;;;;;;;349228;154;857306;-61
2022/05/14 05:59:55;;;;;;;8.21;3.35;;;;;;;;;;345096;154;864891;-60
2022/05/14 06:00:56;;;;;;;5.23;3.17;;;;;;;;;;343253;156;857317;-61
2022/05/14 06:01:58;;;;;;;9.59;3.29;;;;;;;;;;343266;154;857305;-60
2022/05/14 06:03:00;;;;;;;6.94;3.34;;;;;;;;;;342087;156;857880;-61
2022/05/14 06:04:01;;;;;;;7.21;3.69;;;;;;;;;;343087;152;864836;-60
2022/05/14 06:05:04;;;;;;;11.34;4.03;;;;;;;;;;340636;158;864747;-61
2022/05/14 06:06:05;;;;;;;5.67;3.48;;;;;;;;;;344308;155;864917;-60
2022/05/14 06:07:07;;;;;;;12.38;3.66;;;;;;;;;;346729;155;863127;-60
2022/05/14 06:08:09;;;;;;;8.87;3.61;;;;;;;;;;342740;155;857288;-60
2022/05/14 06:09:12;;;;;;;8.59;4.09;;;;;;;;;;341144;155;857232;-61
2022/05/14 06:10:14;;;;;;;9.34;3.82;;;;;;;;;;342449;153;857372;-60
2022/05/14 06:11:16;;;;;;;4.81;3.12;;;;;;;;;;340747;155;857332;-60
2022/05/14 06:12:18;;;;;;;6.84;3.11;;;;;;;;;;340901;155;857277;-60
2022/05/14 06:13:19;;;;;;;6.76;3.40;;;;;;;;;;340755;158;864722;-60
2022/05/14 06:14:21;;;;;;;8.13;3.84;;;;;;;;;;340916;155;857243;-60
2022/05/14 06:15:23;;;;;;;6.41;3.69;;;;;;;;;;340839;158;857251;-61
2022/05/14 06:16:25;;;;;;;5.85;3.47;;;;;;;;;;340896;155;857298;-61
2022/05/14 06:17:27;;;;;;;8.44;3.74;;;;;;;;;;340852;155;864950;-61
2022/05/14 06:18:29;;;;;;;9.04;4.05;;;;;;;;;;346813;155;857401;-61
2022/05/14 06:19:30;;;;;;;8.91;3.47;;;;;;;;;;346642;155;857235;-61
2022/05/14 06:20:32;;;;;;;8.46;4.25;;;;;;;;;;346746;155;857271;-61